EDT,Max TemperatureF,Mean TemperatureF,Min TemperatureF,Max Dew PointF,MeanDew PointF,Min DewpointF,Max Humidity, Mean Humidity, Min Humidity, Max Sea Level PressureIn, Mean Sea Level PressureIn, Min Sea Level PressureIn, Max VisibilityMiles, Mean VisibilityMiles, Min VisibilityMiles, Max Wind SpeedMPH, Mean Wind SpeedMPH, Max Gust SpeedMPH,PrecipitationIn, CloudCover, Events, WindDirDegrees
2013-3-1,30,28,25,28,24,21,93,87,74,30.05,29.97,29.88,10,6,1,22,15,30,0.01,8,Snow,341
2013-3-2,27,25,23,24,22,19,93,85,78,30.04,30.01,29.99,10,6,1,16,10,,0.02,8,Snow,1
2013-3-3,26,24,23,22,19,17,88,80,71,30.06,30.02,29.98,10,8,2,18,14,,0.00,8,Snow,308
2013-3-4,30,26,21,21,19,16,93,76,69,30.16,30.11,30.06,10,10,10,12,6,,0.00,3,,276
2013-3-5,30,26,21,27,24,18,89,84,71,30.14,29.94,29.73,10,10,9,21,9,28,0.00,0,,47
2013-3-6,36,33,30,32,29,26,100,87,82,30.19,30.01,29.72,10,9,6,20,12,25,0.00,4,,40
2013-3-7,35,32,28,34,31,26,100,95,86,30.39,30.28,30.17,10,4,2,12,5,,0.00,8,Snow,279
2013-3-8,33,30,26,30,27,25,96,90,85,30.49,30.45,30.39,10,10,9,9,4,,0.00,5,,302
2013-3-9,48,37,26,32,28,24,96,81,44,30.43,30.31,30.10,10,7,2,14,4,21,0.00,1,,75
2013-3-10,69,58,48,37,32,27,49,36,26,30.07,29.96,29.83,10,10,10,20,14,29,0.00,2,,167
2013-3-11,63,51,39,48,42,33,97,74,33,29.84,29.71,29.53,10,8,2,23,14,39,0.87,8,Rain,201
2013-3-12,39,36,33,34,30,25,87,77,70,29.98,29.87,29.75,10,10,5,20,15,28,0.00,8,Snow,242
2013-3-13,34,31,28,27,24,19,93,75,59,30.16,30.00,29.89,10,8,0,30,18,37,0.00,7,Fog-Snow,263
2013-3-14,34,30,28,22,19,16,69,63,60,30.26,30.20,30.11,10,10,7,24,17,31,0.00,2,,281
2013-3-15,39,36,32,34,30,21,100,85,61,30.09,29.92,29.86,10,5,1,15,8,22,0.12,6,Rain-Snow,237
2013-3-16,35,32,30,34,30,24,100,95,79,30.03,29.78,29.68,10,4,1,26,8,32,0.20,8,Rain-Snow,46
2013-3-17,32,29,28,27,23,18,88,76,64,30.25,30.16,30.01,10,10,10,16,8,21,0.08,5,,360
2013-3-18,43,35,27,43,33,17,100,86,61,30.17,29.72,29.55,10,7,2,23,13,33,0.18,7,Rain,152
2013-3-19,37,32,27,34,23,18,86,69,59,29.95,29.81,29.70,10,9,4,28,20,36,0.00,8,Snow,247
2013-3-20,32,29,24,21,18,15,80,66,56,29.96,29.92,29.88,10,9,2,29,20,36,0.00,8,Snow,272
2013-3-21,30,24,19,27,20,12,93,82,63,29.91,29.87,29.85,10,4,1,26,17,34,0.00,8,Snow,252
2013-3-22,33,30,26,27,22,19,93,75,61,30.01,29.95,29.88,10,8,0,29,20,33,0.00,7,Fog-Snow,282
2013-3-23,37,30,25,30,25,20,85,77,70,30.09,30.06,30.00,10,8,4,8,2,,0.00,0,,12
2013-3-24,35,31,28,28,23,20,85,71,59,30.02,29.82,29.53,10,10,10,18,8,25,0.00,4,,64
2013-3-25,34,32,30,32,31,25,100,93,70,29.83,29.57,29.45,10,3,1,22,14,29,0.17,8,Snow,35
2013-3-26,39,34,32,33,31,30,100,89,79,30.10,29.97,29.85,10,9,2,18,6,,0.02,8,Snow,261
2013-3-27,39,36,33,32,30,28,96,81,65,30.18,30.13,30.07,10,10,5,17,13,,0.01,7,Snow,264
2013-3-28,42,38,34,31,29,27,89,75,57,30.27,30.23,30.17,10,10,9,16,9,,0.00,8,,266
2013-3-29,43,38,35,32,28,20,79,65,41,30.28,30.25,30.22,10,10,9,10,5,,0.00,3,,254
2013-3-30,55,43,32,33,25,20,70,52,26,30.23,30.14,29.97,10,10,10,16,6,21,0.00,0,,154
2013-3-31,54,49,45,44,32,22,86,55,37,29.95,29.75,29.65,10,10,7,18,11,31,0.02,4,Rain,194